Time;durP1;ratioP1;P1;durP2;ratioP2;P2;SDS_P1;SDS_P2;PMS_P1;PMS_P2;Temp;Humidity;BMP_temperature;BMP_pressure;BME280_temperature;BME280_humidity;BME280_pressure;Samples;Min_cycle;Max_cycle;Signal;HPM_P1;HPM_P2
2023/08/31 00:01:04;;;;;;;3.10;2.70;;;14.80;1.00;;;;;;4989868;28;21026;-77
2023/08/31 00:03:30;;;;;;;11.83;3.33;;;14.80;1.00;;;;;;4993313;28;20549;-76
2023/08/31 00:05:56;;;;;;;4.27;2.83;;;14.70;1.00;;;;;;4975101;28;20222;-77
2023/08/31 00:08:22;;;;;;;6.80;4.03;;;14.80;1.00;;;;;;4992312;28;20493;-75
2023/08/31 00:10:58;;;;;;;3.43;3.00;;;14.80;1.00;;;;;;4990294;28;20581;-77
2023/08/31 00:13:24;;;;;;;7.70;3.63;;;14.70;1.00;;;;;;4990786;28;20179;-76
2023/08/31 00:15:49;;;;;;;6.10;3.17;;;14.70;1.00;;;;;;4992544;28;20524;-77
2023/08/31 00:18:16;;;;;;;6.10;3.20;;;14.70;1.00;;;;;;4992878;28;20925;-77
2023/08/31 00:20:42;;;;;;;5.60;3.30;;;14.70;1.00;;;;;;4991778;28;20269;-76
2023/08/31 00:23:08;;;;;;;3.97;3.30;;;14.60;1.00;;;;;;4990052;28;20473;-76
2023/08/31 00:25:33;;;;;;;5.40;3.83;;;14.60;1.00;;;;;;4992029;28;20216;-76
2023/08/31 00:28:04;;;;;;;4.33;3.10;;;14.60;1.00;;;;;;4975160;28;20473;-77
2023/08/31 00:30:33;;;;;;;6.43;3.50;;;14.60;1.00;;;;;;4972855;28;20269;-76
2023/08/31 00:33:01;;;;;;;5.03;3.07;;;14.60;1.00;;;;;;4987496;28;20513;-76
2023/08/31 00:35:27;;;;;;;4.83;3.30;;;14.60;1.00;;;;;;4990490;28;20907;-76
2023/08/31 00:38:00;;;;;;;11.40;3.50;;;14.60;1.00;;;;;;4990931;28;20531;-78
2023/08/31 00:40:26;;;;;;;4.37;3.50;;;14.70;1.00;;;;;;4975635;28;20230;-77
2023/08/31 00:42:51;;;;;;;4.30;3.50;;;14.70;1.00;;;;;;4990572;28;20853;-77
2023/08/31 00:45:19;;;;;;;6.80;3.50;;;14.60;1.00;;;;;;4992564;28;20207;-76
2023/08/31 00:47:47;;;;;;;5.80;3.70;;;14.60;1.00;;;;;;4992534;28;20222;-77
2023/08/31 00:50:12;;;;;;;5.97;3.10;;;14.60;1.00;;;;;;4993277;28;20472;-78
2023/08/31 00:52:38;;;;;;;6.40;3.30;;;14.60;1.00;;;;;;4993656;28;20422;-76
2023/08/31 00:55:05;;;;;;;5.07;3.13;;;14.50;1.00;;;;;;4974663;28;20183;-77
2023/08/31 00:57:30;;;;;;;4.90;3.40;;;14.50;1.00;;;;;;4975440;28;20203;-77
2023/08/31 00:59:56;;;;;;;6.53;3.80;;;14.40;1.00;;;;;;4992972;28;20437;-78
2023/08/31 01:02:34;;;;;;;5.40;3.80;;;14.40;1.00;;;;;;4993270;28;20725;-76
2023/08/31 01:05:13;;;;;;;4.03;3.03;;;14.40;1.00;;;;;;4992036;28;20749;-76
2023/08/31 01:08:05;;;;;;;5.10;3.50;;;14.30;1.00;;;;;;4974294;28;20473;-77
2023/08/31 01:10:33;;;;;;;6.33;3.97;;;14.30;1.00;;;;;;4975503;28;20442;-77
2023/08/31 01:13:13;;;;;;;6.17;4.37;;;14.30;1.00;;;;;;4974604;28;20464;-78
2023/08/31 01:15:44;;;;;;;7.93;3.70;;;14.40;1.00;;;;;;4974790;28;20464;-78
2023/08/31 01:18:12;;;;;;;5.20;3.80;;;14.40;1.00;;;;;;4975571;28;20415;-76
2023/08/31 01:20:44;;;;;;;6.00;4.00;;;14.40;1.00;;;;;;4974470;28;20430;-77
2023/08/31 01:23:13;;;;;;;6.33;3.97;;;14.40;1.00;;;;;;4992198;28;20426;-76
2023/08/31 01:25:40;;;;;;;7.03;3.90;;;14.40;1.00;;;;;;4992777;28;20867;-76
2023/08/31 01:28:07;;;;;;;5.80;4.07;;;14.40;1.00;;;;;;4992254;28;20847;-76
2023/08/31 01:30:33;;;;;;;5.00;3.83;;;14.40;1.00;;;;;;4975987;28;20501;-76
2023/08/31 01:32:58;;;;;;;6.53;4.13;;;14.50;1.00;;;;;;4991164;28;20940;-79
2023/08/31 01:35:25;;;;;;;5.20;3.80;;;14.40;1.00;;;;;;4976784;28;20763;-77
2023/08/31 01:37:58;;;;;;;5.80;4.50;;;14.40;1.00;;;;;;4993374;28;20215;-76
2023/08/31 01:40:33;;;;;;;6.97;4.70;;;14.40;1.00;;;;;;4985986;28;20936;-77
2023/08/31 01:43:03;;;;;;;8.13;4.30;;;14.40;1.00;;;;;;4993314;28;20516;-79
2023/08/31 01:45:30;;;;;;;5.73;4.30;;;14.40;1.00;;;;;;4976290;28;20461;-77
2023/08/31 01:47:56;;;;;;;5.43;4.53;;;14.40;1.00;;;;;;4976945;28;20442;-77
2023/08/31 01:50:21;;;;;;;6.40;4.13;;;14.40;1.00;;;;;;4992374;28;20525;-78
2023/08/31 01:52:47;;;;;;;7.93;4.40;;;14.40;1.00;;;;;;4993613;28;20657;-77
2023/08/31 01:55:15;;;;;;;6.13;3.90;;;14.40;1.00;;;;;;4991917;28;20551;-77
2023/08/31 01:57:41;;;;;;;8.33;3.90;;;14.40;1.00;;;;;;4994110;28;20203;-78
2023/08/31 02:00:08;;;;;;;5.27;4.03;;;14.40;1.00;;;;;;4993563;28;20433;-77
2023/08/31 02:02:34;;;;;;;9.17;4.00;;;14.40;1.00;;;;;;4993874;28;20205;-76
2023/08/31 02:05:01;;;;;;;7.43;3.93;;;14.40;1.00;;;;;;4991262;28;21042;-78
2023/08/31 02:07:27;;;;;;;4.37;3.60;;;14.40;1.00;;;;;;4975066;28;20248;-78
2023/08/31 02:09:52;;;;;;;4.03;3.50;;;14.40;1.00;;;;;;4993563;28;20856;-77
2023/08/31 02:12:18;;;;;;;5.47;3.60;;;16.50;1.00;;;;;;4993933;28;20191;-76
2023/08/31 02:14:43;;;;;;;5.33;4.30;;;14.40;1.00;;;;;;4976561;28;20621;-78
2023/08/31 02:17:09;;;;;;;5.07;4.00;;;14.40;1.00;;;;;;4976202;28;20206;-78
2023/08/31 02:19:34;;;;;;;7.17;4.23;;;14.50;1.00;;;;;;4976857;28;20183;-78
2023/08/31 02:22:00;;;;;;;5.70;4.30;;;14.50;1.00;;;;;;4976149;28;20186;-77
2023/08/31 02:24:25;;;;;;;7.50;4.00;;;14.40;1.00;;;;;;4974484;28;20237;-77
2023/08/31 02:26:52;;;;;;;6.13;4.53;;;14.40;1.00;;;;;;4973932;28;20710;-78
2023/08/31 02:29:17;;;;;;;8.83;5.00;;;14.30;1.00;;;;;;4976725;28;20227;-77
2023/08/31 02:31:45;;;;;;;5.67;4.27;;;14.40;1.00;;;;;;4976062;28;20442;-77
2023/08/31 02:34:11;;;;;;;5.07;4.20;;;;;;;;;;4993674;28;20183;-78
2023/08/31 02:36:36;;;;;;;6.73;4.40;;;14.30;1.00;;;;;;4994789;28;20847;-79
2023/08/31 02:39:03;;;;;;;8.57;4.33;;;14.30;1.00;;;;;;4991998;28;20454;-77
2023/08/31 02:41:29;;;;;;;10.17;4.50;;;14.30;1.00;;;;;;4991642;28;20191;-78
2023/08/31 02:43:55;;;;;;;7.00;4.07;;;14.30;1.00;;;;;;4992966;28;20527;-78
2023/08/31 02:46:20;;;;;;;6.37;4.00;;;14.30;1.00;;;;;;4992296;28;20203;-77
2023/08/31 02:48:46;;;;;;;6.40;4.60;;;14.50;1.00;;;;;;4990518;28;20207;-77
2023/08/31 02:51:12;;;;;;;8.20;4.53;;;14.40;1.00;;;;;;4989678;28;20182;-77
2023/08/31 02:53:37;;;;;;;6.50;4.50;;;14.50;1.00;;;;;;4991601;28;20561;-77
2023/08/31 02:56:03;;;;;;;5.53;4.20;;;14.50;1.00;;;;;;4991864;28;20218;-76
2023/08/31 02:58:29;;;;;;;8.07;4.63;;;14.50;1.00;;;;;;4973061;28;20190;-78
2023/08/31 03:00:55;;;;;;;5.50;4.03;;;14.60;1.00;;;;;;4975761;28;20198;-77
2023/08/31 03:03:21;;;;;;;8.00;3.97;;;14.70;1.00;;;;;;4972762;28;20206;-77
2023/08/31 03:05:47;;;;;;;7.73;4.00;;;14.70;1.00;;;;;;4988933;28;20442;-76
2023/08/31 03:08:12;;;;;;;6.83;3.70;;;14.70;1.00;;;;;;4971082;28;20183;-78
2023/08/31 03:10:38;;;;;;;6.17;4.53;;;14.80;1.00;;;;;;4972883;28;20202;-77
2023/08/31 03:13:04;;;;;;;10.33;4.43;;;14.80;1.00;;;;;;4989237;28;20194;-79
2023/08/31 03:15:32;;;;;;;7.07;4.77;;;14.80;1.00;;;;;;4989809;28;20446;-78
2023/08/31 03:17:58;;;;;;;4.73;3.90;;;14.80;1.00;;;;;;4989019;28;20474;-78
2023/08/31 03:20:23;;;;;;;7.10;4.50;;;14.80;1.00;;;;;;4990633;28;20434;-77
2023/08/31 03:22:49;;;;;;;6.00;4.37;;;14.80;1.00;;;;;;4987846;28;20668;-77
2023/08/31 03:25:14;;;;;;;5.20;4.00;;;14.80;1.00;;;;;;4987811;28;20207;-77
2023/08/31 03:27:40;;;;;;;5.33;4.07;;;14.80;1.00;;;;;;4993220;28;20203;-77
2023/08/31 03:30:06;;;;;;;6.63;4.13;;;14.80;1.00;;;;;;4996498;28;20183;-77
2023/08/31 03:32:32;;;;;;;5.77;3.90;;;14.80;1.00;;;;;;4993479;28;20187;-76
2023/08/31 03:34:57;;;;;;;5.03;4.10;;;14.70;1.00;;;;;;4977604;28;20816;-76
2023/08/31 03:37:23;;;;;;;7.80;4.10;;;14.80;1.00;;;;;;4977324;28;20211;-78
2023/08/31 03:39:48;;;;;;;8.07;3.93;;;14.80;1.00;;;;;;4995087;28;20278;-77
2023/08/31 03:42:14;;;;;;;7.10;4.03;;;14.80;1.00;;;;;;4978005;28;20191;-77
2023/08/31 03:44:39;;;;;;;5.73;4.20;;;14.80;1.00;;;;;;4995226;28;20219;-77
2023/08/31 03:47:05;;;;;;;4.03;3.43;;;14.80;1.00;;;;;;4993903;28;20202;-77
2023/08/31 03:49:31;;;;;;;5.00;3.93;;;14.90;1.00;;;;;;4994922;28;20278;-77
2023/08/31 03:51:57;;;;;;;5.60;3.97;;;14.60;1.00;;;;;;4994350;28;20183;-76
2023/08/31 03:54:23;;;;;;;7.50;4.17;;;14.80;1.00;;;;;;4993753;28;20438;-77
2023/08/31 03:56:49;;;;;;;4.73;3.87;;;14.80;1.00;;;;;;4976739;28;20942;-76
2023/08/31 03:59:14;;;;;;;6.60;4.07;;;14.80;1.00;;;;;;4990118;28;20669;-76
2023/08/31 04:01:40;;;;;;;6.40;4.17;;;14.90;1.00;;;;;;4977899;28;20586;-77
2023/08/31 04:04:05;;;;;;;5.37;3.57;;;14.80;1.00;;;;;;4994333;28;20954;-77
2023/08/31 04:06:31;;;;;;;7.10;3.87;;;14.80;1.00;;;;;;4993817;28;20203;-76
2023/08/31 04:08:56;;;;;;;6.23;4.10;;;14.80;1.00;;;;;;4991755;28;20550;-77
2023/08/31 04:11:24;;;;;;;8.80;4.37;;;14.70;1.00;;;;;;4990510;28;20190;-76
2023/08/31 04:13:50;;;;;;;7.73;4.40;;;14.80;1.00;;;;;;4973159;28;20213;-76
2023/08/31 04:16:15;;;;;;;5.77;4.33;;;14.70;1.00;;;;;;4975830;28;20462;-76
2023/08/31 04:18:41;;;;;;;7.80;4.40;;;14.70;1.00;;;;;;4993969;28;20194;-75
2023/08/31 04:21:06;;;;;;;5.30;3.90;;;14.70;1.00;;;;;;4991315;28;20195;-77
2023/08/31 04:23:32;;;;;;;8.43;4.10;;;14.70;1.00;;;;;;4986994;28;20744;-77
2023/08/31 04:25:58;;;;;;;7.83;4.30;;;14.60;1.00;;;;;;4990040;28;20179;-78
2023/08/31 04:28:24;;;;;;;7.90;3.77;;;14.60;1.00;;;;;;4971441;28;20191;-78
2023/08/31 04:30:49;;;;;;;6.77;4.20;;;14.50;1.00;;;;;;4989326;28;20282;-77
2023/08/31 04:33:15;;;;;;;7.97;4.10;;;14.50;1.00;;;;;;4989107;28;20987;-78
2023/08/31 04:35:41;;;;;;;8.73;4.37;;;14.50;1.00;;;;;;4987452;28;20175;-77
2023/08/31 04:38:07;;;;;;;6.40;4.50;;;14.40;1.00;;;;;;4970666;28;20470;-77
2023/08/31 04:40:32;;;;;;;8.00;5.30;;;14.50;1.00;;;;;;4988023;28;20195;-77
2023/08/31 04:42:58;;;;;;;5.93;4.40;;;14.40;1.00;;;;;;4989126;28;20883;-77
2023/08/31 04:45:23;;;;;;;7.00;4.73;;;14.40;1.00;;;;;;4988103;28;20218;-76
2023/08/31 04:47:50;;;;;;;9.20;4.60;;;14.50;1.00;;;;;;4988316;28;20631;-78
2023/08/31 04:50:17;;;;;;;5.57;4.30;;;14.40;1.00;;;;;;4987596;28;20210;-77
2023/08/31 04:52:42;;;;;;;6.10;4.87;;;14.40;1.00;;;;;;4987201;28;20426;-79
2023/08/31 04:55:08;;;;;;;6.70;4.57;;;14.40;1.00;;;;;;4987835;28;20445;-78
2023/08/31 04:57:34;;;;;;;6.70;4.80;;;14.40;1.00;;;;;;4989106;28;20203;-77
2023/08/31 04:59:59;;;;;;;10.27;5.50;;;14.50;1.00;;;;;;4987503;28;20582;-76
2023/08/31 05:02:25;;;;;;;7.40;4.60;;;14.50;1.00;;;;;;4987909;28;20439;-77
2023/08/31 05:04:51;;;;;;;10.90;4.43;;;14.50;1.00;;;;;;4970331;28;20199;-77
2023/08/31 05:07:16;;;;;;;8.10;4.83;;;14.60;1.00;;;;;;4990268;28;20304;-77
2023/08/31 05:09:42;;;;;;;8.07;4.93;;;14.70;1.00;;;;;;4988354;28;20489;-76
2023/08/31 05:12:08;;;;;;;6.13;4.67;;;14.80;1.00;;;;;;4988508;28;20187;-77
2023/08/31 05:14:37;;;;;;;9.93;5.00;;;14.80;1.00;;;;;;4987616;28;20186;-77
2023/08/31 05:17:06;;;;;;;6.63;4.50;;;14.80;1.00;;;;;;4969300;28;20645;-77
2023/08/31 05:19:31;;;;;;;5.70;4.93;;;14.80;1.00;;;;;;4969115;28;20598;-78
2023/08/31 05:21:57;;;;;;;6.70;4.83;;;14.80;1.00;;;;;;4988815;28;20445;-77
2023/08/31 05:24:23;;;;;;;6.87;5.33;;;14.90;1.00;;;;;;4983047;28;20238;-76
2023/08/31 05:26:51;;;;;;;9.93;5.30;;;14.90;1.00;;;;;;4971327;28;20302;-77
2023/08/31 05:29:17;;;;;;;8.90;5.07;;;15.00;1.00;;;;;;4986375;28;20218;-78
2023/08/31 05:31:42;;;;;;;7.53;5.10;;;15.00;1.00;;;;;;4985524;28;20897;-77
2023/08/31 05:34:10;;;;;;;7.83;5.23;;;15.10;1.00;;;;;;4986112;28;20527;-77
2023/08/31 05:36:36;;;;;;;9.33;5.10;;;15.10;1.00;;;;;;4988069;28;20210;-77
2023/08/31 05:39:02;;;;;;;7.77;4.93;;;15.20;1.00;;;;;;4989456;28;20821;-78
2023/08/31 05:41:27;;;;;;;6.80;4.93;;;15.20;1.00;;;;;;4969725;28;20543;-77
2023/08/31 05:43:53;;;;;;;7.20;5.07;;;15.40;1.00;;;;;;4989324;28;20628;-77
2023/08/31 05:46:19;;;;;;;13.50;6.07;;;15.50;1.00;;;;;;4989054;28;20214;-78
2023/08/31 05:48:44;;;;;;;7.17;5.27;;;15.50;1.00;;;;;;4988820;28;20262;-78
2023/08/31 05:51:10;;;;;;;7.00;4.77;;;15.60;1.00;;;;;;4988696;28;20529;-78
2023/08/31 05:53:35;;;;;;;5.43;4.93;;;15.60;1.00;;;;;;4984869;28;20665;-77
2023/08/31 05:56:04;;;;;;;6.40;4.70;;;15.90;1.00;;;;;;4985198;28;20356;-78
2023/08/31 05:58:36;;;;;;;10.77;4.80;;;15.80;1.00;;;;;;4983150;28;20190;-76
2023/08/31 06:01:03;;;;;;;8.50;5.03;;;15.90;1.00;;;;;;4984501;28;21027;-76
2023/08/31 06:03:29;;;;;;;7.20;5.03;;;16.00;1.00;;;;;;4983598;28;20585;-75
2023/08/31 06:05:56;;;;;;;7.40;5.33;;;16.10;1.00;;;;;;4981964;28;20545;-76
2023/08/31 06:08:22;;;;;;;8.93;5.40;;;16.10;1.00;;;;;;4983080;28;20198;-77
2023/08/31 06:10:47;;;;;;;10.60;5.60;;;16.10;1.00;;;;;;4987305;28;20813;-76
2023/08/31 06:13:13;;;;;;;7.10;4.60;;;16.10;1.00;;;;;;4985575;28;20187;-73
2023/08/31 06:15:38;;;;;;;5.70;4.60;;;16.10;1.00;;;;;;4985106;28;20202;-76
2023/08/31 06:18:05;;;;;;;8.50;5.10;;;16.10;1.00;;;;;;4986266;28;20225;-76
2023/08/31 06:20:31;;;;;;;10.47;5.73;;;16.20;1.00;;;;;;4986135;28;20202;-75
2023/08/31 06:22:56;;;;;;;10.23;5.50;;;16.20;1.00;;;;;;4988655;28;20438;-75
2023/08/31 06:25:22;;;;;;;7.47;4.80;;;16.30;1.00;;;;;;4989459;28;20217;-76
2023/08/31 06:27:48;;;;;;;6.13;4.73;;;16.50;1.00;;;;;;4989070;28;20210;-77
2023/08/31 06:30:16;;;;;;;7.73;4.90;;;16.40;1.00;;;;;;4988268;28;20218;-76
2023/08/31 06:32:44;;;;;;;8.30;4.27;;;16.40;1.00;;;;;;4989321;28;20461;-75
2023/08/31 06:35:10;;;;;;;6.03;4.80;;;16.30;1.00;;;;;;4989855;28;20434;-77
2023/08/31 06:37:36;;;;;;;10.73;4.90;;;16.40;1.00;;;;;;4989192;28;20537;-77
2023/08/31 06:40:02;;;;;;;6.97;4.80;;;16.40;1.00;;;;;;4966266;28;20561;-77
2023/08/31 06:42:27;;;;;;;8.30;5.40;;;16.40;1.00;;;;;;4980865;28;20199;-74
2023/08/31 06:44:53;;;;;;;9.33;4.80;;;16.40;1.00;;;;;;4969731;28;20215;-75
2023/08/31 06:47:18;;;;;;;7.07;4.43;;;16.60;1.00;;;;;;4987430;28;20234;-77
2023/08/31 06:49:43;;;;;;;6.70;4.70;;;16.70;1.00;;;;;;4970983;28;20219;-77
2023/08/31 06:52:09;;;;;;;10.63;5.27;;;16.80;1.00;;;;;;4989238;28;20187;-77
2023/08/31 06:54:34;;;;;;;6.90;4.57;;;16.80;1.00;;;;;;4992272;28;20265;-77
2023/08/31 06:57:00;;;;;;;6.90;4.60;;;16.60;1.00;;;;;;4978935;28;20218;-77
2023/08/31 06:59:26;;;;;;;8.43;5.13;;;16.70;1.00;;;;;;4976261;28;20187;-77
2023/08/31 07:01:51;;;;;;;9.43;5.10;;;16.80;1.00;;;;;;4991471;28;20183;-77
2023/08/31 07:04:17;;;;;;;9.03;4.27;;;16.70;1.00;;;;;;4973692;28;20210;-76
2023/08/31 07:06:42;;;;;;;6.53;3.97;;;16.70;1.00;;;;;;4989208;28;20199;-78
2023/08/31 07:09:08;;;;;;;6.63;4.87;;;16.80;1.00;;;;;;4985445;28;20554;-77
2023/08/31 07:11:34;;;;;;;6.00;4.30;;;16.80;1.00;;;;;;4973100;28;20191;-78
2023/08/31 07:14:00;;;;;;;12.97;4.47;;;16.90;1.00;;;;;;4991189;28;20191;-76
2023/08/31 07:16:25;;;;;;;9.57;5.20;;;17.10;1.00;;;;;;4991201;28;20207;-79
2023/08/31 07:18:51;;;;;;;7.47;4.63;;;19.80;1.00;;;;;;4972088;28;20195;-79
2023/08/31 07:21:17;;;;;;;6.90;4.77;;;17.80;1.00;;;;;;4988316;28;20190;-79
2023/08/31 07:23:42;;;;;;;10.13;4.70;;;17.40;1.00;;;;;;4967709;28;20554;-78
2023/08/31 07:26:08;;;;;;;6.30;4.57;;;17.20;1.00;;;;;;4990281;28;20206;-78
2023/08/31 07:28:34;;;;;;;5.63;4.23;;;17.10;1.00;;;;;;4990009;28;20725;-78
2023/08/31 07:31:06;;;;;;;10.47;5.10;;;17.10;1.00;;;;;;4989911;28;20187;-78
2023/08/31 07:33:34;;;;;;;10.30;4.00;;;17.80;1.00;;;;;;4989717;28;20469;-77
2023/08/31 07:36:00;;;;;;;9.67;4.70;;;19.20;1.00;;;;;;4991295;28;20459;-79
2023/08/31 07:38:27;;;;;;;8.03;4.37;;;19.30;1.00;;;;;;4974139;28;20952;-78
2023/08/31 07:40:53;;;;;;;5.50;3.77;;;20.10;1.00;;;;;;4989870;28;20442;-78
2023/08/31 07:43:19;;;;;;;9.03;3.90;;;20.60;1.00;;;;;;4989191;28;21047;-78
2023/08/31 07:45:44;;;;;;;5.80;3.70;;;21.30;1.00;;;;;;4987061;28;20462;-76
2023/08/31 07:48:10;;;;;;;8.40;3.43;;;21.30;1.00;;;;;;4988315;28;20192;-79
2023/08/31 07:50:35;;;;;;;6.60;3.53;;;20.90;1.00;;;;;;4990844;28;20190;-78
2023/08/31 07:53:01;;;;;;;6.20;3.60;;;21.00;1.00;;;;;;4991735;28;20660;-78
2023/08/31 07:55:26;;;;;;;5.97;3.00;;;21.60;1.00;;;;;;4989243;28;20205;-78
2023/08/31 07:57:52;;;;;;;5.97;3.30;;;21.90;1.00;;;;;;4985121;28;20307;-80
2023/08/31 08:00:18;;;;;;;7.80;3.40;;;22.00;1.00;;;;;;4970571;28;20191;-79
2023/08/31 08:02:46;;;;;;;8.03;3.50;;;21.90;1.00;;;;;;4988673;28;20665;-78
2023/08/31 08:05:11;;;;;;;6.43;3.30;;;21.90;1.00;;;;;;4984730;28;20728;-77
2023/08/31 08:07:37;;;;;;;6.03;2.87;;;21.70;1.00;;;;;;4987339;28;20462;-77
2023/08/31 08:10:03;;;;;;;7.50;2.77;;;21.60;1.00;;;;;;4987822;28;20190;-77
2023/08/31 08:12:40;;;;;;;4.80;2.83;;;21.40;1.00;;;;;;4966016;28;20187;-77
2023/08/31 08:15:09;;;;;;;5.43;3.17;;;20.90;1.00;;;;;;4971337;28;20236;-77
2023/08/31 08:17:35;;;;;;;6.33;2.73;;;20.50;1.00;;;;;;4987443;28;20504;-77
2023/08/31 08:20:03;;;;;;;5.77;2.77;;;20.20;1.00;;;;;;4987215;28;20478;-76
2023/08/31 08:22:28;;;;;;;6.53;2.80;;;20.20;1.00;;;;;;4989159;28;20585;-77
2023/08/31 08:24:54;;;;;;;7.60;2.70;;;20.20;1.00;;;;;;4987072;28;20473;-75
2023/08/31 08:27:20;;;;;;;9.80;3.43;;;20.00;1.00;;;;;;4973623;28;20195;-77
2023/08/31 08:29:46;;;;;;;4.80;2.70;;;19.80;1.00;;;;;;4967209;28;20435;-77
2023/08/31 08:32:12;;;;;;;5.27;3.00;;;19.70;1.00;;;;;;4968788;28;20524;-77
2023/08/31 08:34:38;;;;;;;7.80;3.00;;;19.50;1.00;;;;;;4986951;28;20442;-76
2023/08/31 08:37:04;;;;;;;5.90;2.83;;;19.40;1.00;;;;;;4988574;28;20221;-75
2023/08/31 08:39:30;;;;;;;5.67;2.93;;;19.40;1.00;;;;;;4988162;28;20191;-77
2023/08/31 08:41:58;;;;;;;5.53;2.70;;;19.50;1.00;;;;;;4989171;28;20991;-77
2023/08/31 08:44:25;;;;;;;6.80;3.20;;;19.70;1.00;;;;;;4989867;28;20570;-78
2023/08/31 08:46:51;;;;;;;6.30;2.90;;;19.80;1.00;;;;;;4987732;28;20469;-76
2023/08/31 08:49:18;;;;;;;7.53;2.83;;;20.20;1.00;;;;;;4982643;28;20786;-77
2023/08/31 08:51:46;;;;;;;4.30;2.67;;;20.60;1.00;;;;;;4971294;28;20520;-77
2023/08/31 08:54:12;;;;;;;6.60;3.13;;;20.80;1.00;;;;;;4989237;28;20453;-77
2023/08/31 08:56:38;;;;;;;9.10;2.77;;;20.80;1.00;;;;;;4988341;28;20474;-77
2023/08/31 08:59:04;;;;;;;5.00;2.37;;;20.90;1.00;;;;;;4968537;28;20434;-78
2023/08/31 09:01:31;;;;;;;8.27;2.90;;;20.70;1.00;;;;;;4988586;28;20561;-77
2023/08/31 09:03:56;;;;;;;5.40;2.80;;;20.50;1.00;;;;;;4988506;28;20457;-76
2023/08/31 09:06:23;;;;;;;5.00;2.50;;;20.50;1.00;;;;;;4985722;28;20470;-77
2023/08/31 09:08:55;;;;;;;8.20;3.40;;;20.40;1.00;;;;;;4967059;28;20660;-76
2023/08/31 09:11:22;;;;;;;6.70;2.60;;;20.50;1.00;;;;;;4988337;28;20438;-73
2023/08/31 09:13:49;;;;;;;4.93;2.23;;;20.50;1.00;;;;;;4986151;28;20434;-77
2023/08/31 09:16:29;;;;;;;5.50;2.90;;;20.60;1.00;;;;;;4987889;28;20508;-76
2023/08/31 09:18:58;;;;;;;4.40;2.80;;;20.40;1.00;;;;;;4987300;28;21007;-77
2023/08/31 09:21:36;;;;;;;5.23;2.53;;;20.40;1.00;;;;;;4989505;28;20521;-74
2023/08/31 09:24:05;;;;;;;3.87;2.47;;;20.60;1.00;;;;;;4985630;28;20539;-75
2023/08/31 09:26:38;;;;;;;8.93;2.90;;;20.90;1.00;;;;;;4987258;28;20960;-76
2023/08/31 09:29:05;;;;;;;5.90;2.57;;;20.70;1.00;;;;;;4988563;28;20496;-74
2023/08/31 09:31:31;;;;;;;5.03;2.70;;;20.60;1.00;;;;;;4984506;28;20433;-75
2023/08/31 09:33:56;;;;;;;6.47;2.80;;;20.80;1.00;;;;;;4985110;28;20214;-77
2023/08/31 09:36:23;;;;;;;5.33;2.83;;;20.60;1.00;;;;;;4986814;28;20265;-76
2023/08/31 09:38:48;;;;;;;6.27;2.70;;;20.60;1.00;;;;;;4985690;28;20195;-75
2023/08/31 09:41:15;;;;;;;5.73;2.50;;;20.60;1.00;;;;;;4988456;28;20442;-73
2023/08/31 09:43:42;;;;;;;5.27;2.47;;;20.60;1.00;;;;;;4988149;28;20183;-76
2023/08/31 09:46:10;;;;;;;5.60;2.57;;;20.60;1.00;;;;;;4987212;28;20968;-77
2023/08/31 09:48:39;;;;;;;4.40;2.57;;;20.80;1.00;;;;;;4985902;28;20454;-76
2023/08/31 09:51:06;;;;;;;3.97;2.50;;;20.70;1.00;;;;;;4986638;28;20433;-76
2023/08/31 09:53:33;;;;;;;5.33;2.50;;;20.80;1.00;;;;;;4982717;28;20430;-75
2023/08/31 09:55:59;;;;;;;5.43;2.60;;;20.60;1.00;;;;;;4985246;28;20452;-76
2023/08/31 09:58:25;;;;;;;5.20;2.50;;;20.70;1.00;;;;;;4986834;28;20442;-76
2023/08/31 10:00:52;;;;;;;5.30;2.50;;;20.80;1.00;;;;;;4985176;28;20925;-76
2023/08/31 10:03:18;;;;;;;5.30;2.43;;;21.00;1.00;;;;;;4984076;28;20238;-75
2023/08/31 10:05:44;;;;;;;6.30;2.50;;;21.00;1.00;;;;;;4966508;28;20475;-76
2023/08/31 10:08:14;;;;;;;5.63;2.50;;;21.50;1.00;;;;;;4985533;28;20175;-77
2023/08/31 10:10:41;;;;;;;5.80;2.50;;;23.70;1.00;;;;;;4984093;28;20452;-77
2023/08/31 10:13:07;;;;;;;6.83;2.37;;;25.30;1.00;;;;;;4984063;28;20501;-77
2023/08/31 10:15:35;;;;;;;5.07;2.27;;;25.00;1.00;;;;;;4983983;28;20861;-76
2023/08/31 10:18:02;;;;;;;5.10;2.43;;;24.50;1.00;;;;;;4982925;28;20463;-77
2023/08/31 10:20:31;;;;;;;5.87;2.80;;;23.70;1.00;;;;;;5010755;22;20524;-73
2023/08/31 10:22:58;;;;;;;4.87;2.30;;;23.60;1.00;;;;;;5022157;28;20494;-75
2023/08/31 10:25:23;;;;;;;6.40;2.53;;;23.70;1.00;;;;;;5023145;28;20468;-74
2023/08/31 10:27:52;;;;;;;6.40;2.33;;;24.20;1.00;;;;;;5026022;28;20450;-75
2023/08/31 10:30:27;;;;;;;8.40;2.50;;;24.20;1.00;;;;;;5025102;28;20173;-70
2023/08/31 10:33:07;;;;;;;6.90;2.57;;;25.10;1.00;;;;;;5022607;28;20478;-74
2023/08/31 10:35:49;;;;;;;5.17;2.70;;;26.20;1.00;;;;;;5025939;28;20443;-74
2023/08/31 10:38:16;;;;;;;7.90;2.40;;;28.40;1.00;;;;;;5035274;28;20446;-74
2023/08/31 10:40:42;;;;;;;5.67;2.40;;;29.90;1.00;;;;;;5027226;28;20193;-76
2023/08/31 10:43:17;;;;;;;5.33;2.53;;;29.90;1.00;;;;;;5026529;28;20285;-77
2023/08/31 10:45:45;;;;;;;4.05;2.20;;;31.00;1.00;;;;;;5019948;28;20205;-74
2023/08/31 10:48:11;;;;;;;5.78;2.55;;;30.70;1.00;;;;;;5025749;28;20190;-73
2023/08/31 10:50:41;;;;;;;4.73;2.23;;;27.50;1.00;;;;;;5025067;28;20622;-74
2023/08/31 10:53:09;;;;;;;5.83;2.43;;;27.50;1.00;;;;;;5029107;28;20178;-74
2023/08/31 10:55:34;;;;;;;5.53;2.60;;;28.40;1.00;;;;;;5027493;28;20276;-75
2023/08/31 10:58:08;;;;;;;8.27;2.57;;;28.90;1.00;;;;;;5028152;28;20610;-73
2023/08/31 11:00:50;;;;;;;5.20;2.07;;;28.90;1.00;;;;;;5028240;28;20243;-73
2023/08/31 11:03:16;;;;;;;5.53;2.40;;;28.90;1.00;;;;;;5032519;28;20253;-72
2023/08/31 11:05:52;;;;;;;5.93;2.60;;;30.00;1.00;;;;;;5030358;28;20655;-74
2023/08/31 11:08:25;;;;;;;5.22;2.58;;;31.40;1.00;;;;;;5024820;28;20174;-73
2023/08/31 11:10:52;;;;;;;4.88;2.35;;;31.00;1.00;;;;;;5032750;28;20339;-74
2023/08/31 11:13:19;;;;;;;8.05;2.47;;;30.20;1.00;;;;;;5023207;28;20185;-77
2023/08/31 11:15:46;;;;;;;7.30;2.85;;;30.80;1.00;;;;;;5028847;28;20188;-76
2023/08/31 11:18:12;;;;;;;5.43;2.60;;;31.30;1.00;;;;;;5026397;28;20178;-75
2023/08/31 11:20:38;;;;;;;6.20;2.47;;;29.00;1.00;;;;;;5022845;28;20185;-75
2023/08/31 11:23:03;;;;;;;7.10;2.47;;;29.00;1.00;;;;;;5020140;28;20192;-75
2023/08/31 11:25:32;;;;;;;4.20;2.10;;;30.70;1.00;;;;;;5029711;28;20219;-74
2023/08/31 11:27:59;;;;;;;8.93;3.45;;;32.50;1.00;;;;;;5029164;28;21018;-74
2023/08/31 11:30:26;;;;;;;7.60;2.55;;;31.00;1.00;;;;;;5026179;28;20174;-74
2023/08/31 11:32:53;;;;;;;5.05;2.30;;;30.90;1.00;;;;;;5023914;28;20174;-76
2023/08/31 11:35:22;;;;;;;5.97;2.60;;;28.60;1.00;;;;;;5025635;28;20254;-74
2023/08/31 11:37:56;;;;;;;7.30;2.47;;;27.10;1.00;;;;;;5027113;28;20690;-79
2023/08/31 11:40:21;;;;;;;8.43;2.87;;;25.60;1.00;;;;;;5022033;28;20216;-73
2023/08/31 11:42:49;;;;;;;9.97;2.80;;;24.50;1.00;;;;;;5027515;28;20282;-73
2023/08/31 11:45:16;;;;;;;8.20;2.63;;;23.90;1.00;;;;;;5025747;28;20215;-73
2023/08/31 11:47:43;;;;;;;8.30;3.00;;;23.20;1.00;;;;;;5030412;28;20442;-72
2023/08/31 11:50:10;;;;;;;5.30;2.70;;;23.00;1.00;;;;;;5018046;28;20441;-73
2023/08/31 11:52:37;;;;;;;6.47;2.37;;;23.60;1.00;;;;;;5020051;28;20455;-73
2023/08/31 11:55:09;;;;;;;5.60;2.50;;;24.70;1.00;;;;;;5025424;28;20883;-73
2023/08/31 11:57:35;;;;;;;7.90;2.90;;;25.40;1.00;;;;;;5028609;28;20447;-75
2023/08/31 12:00:04;;;;;;;5.60;2.47;;;26.00;1.00;;;;;;5024592;28;20437;-73
2023/08/31 12:02:35;;;;;;;5.57;2.23;;;26.80;1.00;;;;;;5019350;28;20235;-75
2023/08/31 12:05:00;;;;;;;7.60;2.77;;;26.90;1.00;;;;;;5029562;28;21040;-73
2023/08/31 12:07:26;;;;;;;6.93;2.63;;;26.70;1.00;;;;;;5031607;28;20522;-73
2023/08/31 12:09:51;;;;;;;5.47;2.90;;;27.20;1.00;;;;;;5029979;28;20188;-73
2023/08/31 12:12:21;;;;;;;7.03;2.77;;;27.60;1.00;;;;;;5032774;28;20545;-74
2023/08/31 12:14:47;;;;;;;8.23;3.07;;;27.20;1.00;;;;;;5031213;28;20212;-73
2023/08/31 12:17:12;;;;;;;4.90;2.80;;;26.10;1.00;;;;;;5018820;28;20457;-74
2023/08/31 12:19:39;;;;;;;10.87;2.80;;;25.00;1.00;;;;;;5031156;28;20231;-73
2023/08/31 12:22:07;;;;;;;8.53;2.70;;;24.40;1.00;;;;;;5022494;28;20216;-71
2023/08/31 12:24:40;;;;;;;7.03;3.00;;;23.70;1.00;;;;;;5031635;28;20890;-73
2023/08/31 12:27:06;;;;;;;9.07;3.00;;;23.30;1.00;;;;;;5034787;28;20519;-73
2023/08/31 12:29:32;;;;;;;9.27;2.93;;;23.30;1.00;;;;;;5027206;28;20431;-73
2023/08/31 12:31:57;;;;;;;6.77;2.83;;;23.30;1.00;;;;;;5029300;28;20447;-73
2023/08/31 12:34:23;;;;;;;9.57;2.90;;;23.90;1.00;;;;;;5026394;28;20192;-74
2023/08/31 12:36:49;;;;;;;6.53;3.00;;;24.50;1.00;;;;;;5033905;28;20207;-74
2023/08/31 12:39:14;;;;;;;7.07;3.20;;;25.20;1.00;;;;;;5032579;28;20431;-73
2023/08/31 12:41:40;;;;;;;6.93;2.93;;;26.60;1.00;;;;;;5031064;28;20212;-74
2023/08/31 12:44:07;;;;;;;5.53;2.83;;;28.20;1.00;;;;;;5022464;28;20251;-74
2023/08/31 12:46:33;;;;;;;5.20;2.57;;;30.60;1.00;;;;;;5034915;28;20215;-74
2023/08/31 12:49:01;;;;;;;6.33;2.80;;;31.30;1.00;;;;;;5029393;28;20192;-74
2023/08/31 12:51:27;;;;;;;5.30;2.63;;;30.20;1.00;;;;;;5026320;28;20284;-72
2023/08/31 12:53:53;;;;;;;5.90;2.80;;;28.30;1.00;;;;;;5031200;28;20181;-74
2023/08/31 12:56:21;;;;;;;6.97;2.80;;;27.10;1.00;;;;;;5021957;28;20188;-74